Nearby METAR Reports

 

KSJC - San Jose, California, USA
Distance from station: NE 14km
Updated: 25/02/2024 19:53
Few Clouds
Few Clouds
 Wind from NNW
Wind: NNW 13 km/h
Temperature: 14°C
Dew Point: 8°C
Humidity: 67%
Barometer: 1017.6 hPa
Clouds: Few Clouds
Visibility: 16 km
Cloud details: Few Clouds 1219 m
2024/02/26 03:53 KSJC 260353Z 34007KT 10SM FEW040 14/08 A3005 RMK AO2 SLP174 T01390083
KNUQ - Moffett Nas/Mtn, California, USA
Distance from station: N 14km
Updated: 25/02/2024 19:35
Clear
Clear
 Wind from NNW
Wind: NNW 17 km/h
Temperature: 13°C
Dew Point: 9°C
Humidity: 77%
Barometer: 1017.6 hPa
Clouds: Clear
Visibility: 16 km
2024/02/26 03:35 KNUQ 260335Z AUTO 34009KT 10SM CLR 13/09 A3005 RMK AO2
 
KPAO - Palo Alto, California, USA
Distance from station: NNW 23km
Updated: 25/02/2024 19:47
Clear
Clear
 Wind from NW
Wind: NW 13 km/h
Temperature: 11°C
Dew Point: 8°C
Humidity: 82%
Barometer: 1017.6 hPa
Clouds: Clear
Visibility: 16 km
2024/02/26 03:47 KPAO 260347Z 32007KT 10SM SKC 11/08 A3005
KRHV - San Jose/Reid, California, USA
Distance from station: ENE 19km
Updated: 25/02/2024 19:47
Few Clouds
Few Clouds
 Wind from WNW
Wind: WNW 13 km/h
Temperature: 13°C
Dew Point: 8°C
Humidity: 72%
Barometer: 1017.6 hPa
Clouds: Few Clouds
Visibility: 16 km
Cloud details: Few Clouds 2134 m
2024/02/26 03:47 KRHV 260347Z 30007KT 10SM FEW070 13/08 A3005
 
KOAK - Oakland, California, USA
Distance from station: NNW 50km
Updated: 25/02/2024 19:53
Partly cloudy
Partly cloudy
 Wind from W
Wind: W 15 km/h
Temperature: 13°C
Dew Point: 10°C
Humidity: 82%
Barometer: 1017.6 hPa
Clouds: Partly cloudy
Visibility: 16 km
Cloud details: Few Clouds 274 m
Partly cloudy 1524 m
2024/02/26 03:53 KOAK 260353Z 28008KT 10SM FEW009 SCT050 13/10 A3005 RMK AO2 SLP177 T01280100
KSQL - San Carlos Airpo, California, USA
Distance from station: NW 34km
Updated: 25/02/2024 19:47
Clear
Clear
 Wind from W
Wind: W 13 km/h
Temperature: 13°C
Dew Point: 8°C
Humidity: 72%
Barometer: 1017.9 hPa
Clouds: Clear
Visibility: 16 km
2024/02/26 03:47 KSQL 260347Z 27007KT 10SM CLR 13/08 A3006
 
KSFO - San Francisco, California, USA
Distance from station: NW 49km
Updated: 25/02/2024 18:56
Few Clouds
Few Clouds
 Wind from WSW
Wind: WSW 15 km/h
Temperature: 13°C
Dew Point: 9°C
Humidity: 77%
Barometer: 1017.3 hPa
Clouds: Few Clouds
Visibility: 16 km
Cloud details: Few Clouds 457 m
2024/02/26 02:56 KSFO 260256Z 24008KT 10SM FEW015 13/09 A3004 RMK AO2 SLP173 T01330089 51012 $
KE16 - San Martin, California, USA
Distance from station: ESE 43km
Updated: 25/02/2024 19:35
Overcast
Overcast
 Wind from E
Wind: E 6 km/h
Temperature: 12°C
Dew Point: 7°C
Humidity: 72%
Barometer: 1017.9 hPa
Clouds: Overcast
Visibility: 16 km
Cloud details: Mostly cloudy 823 m
Overcast 1067 m
2024/02/26 03:35 KE16 260335Z AUTO 10003KT 10SM BKN027 OVC035 12/07 A3006 RMK AO2 PWINO PNO
 
KWVI - Watsonville, California, USA
Distance from station: SSE 44km
Updated: 25/02/2024 11:53
NOT Current
Clear
Clear
 Wind from WSW
Wind: WSW 13 km/h
Barometer: 1018.6 hPa
Clouds: Clear
Visibility: 16 km
2024/02/25 19:53 KWVI 251953Z AUTO 24007KT 10SM CLR A3008 RMK AO2 SLPNO $
KHAF - Half Moon Bay, California, USA
Distance from station: WNW 50km
Updated: 25/02/2024 19:55
Mist, Overcast
Mist, Overcast
 Wind from calm
Wind: Calm
Temperature: 11°C
Dew Point: 11°C
Humidity: 100%
Barometer: 1017.6 hPa
Summary: Mist
Clouds: Overcast
Visibility: 10 km
Cloud details: Overcast 2438 m
2024/02/26 03:55 KHAF 260355Z AUTO 00000KT 6SM BR OVC080 11/11 A3005 RMK AO2
 
KHWD - Hayward, California, USA
Distance from station: N 44km
Updated: 25/02/2024 19:54
Clear
Clear
 Wind from NW
Wind: NW 9 km/h
Temperature: 13°C
Dew Point: 9°C
Humidity: 77%
Barometer: 1017.6 hPa
Clouds: Clear
Visibility: 16 km
2024/02/26 03:54 KHWD 260354Z 31005KT 10SM CLR 13/09 A3005 RMK AO2 SLP185 T01280089
KLVK - Livermore, California, USA
Distance from station: NNE 51km
Updated: 25/02/2024 19:53
Clear
Clear
 Wind from WNW
Wind: WNW 11 km/h
Temperature: 12°C
Dew Point: 8°C
Humidity: 77%
Barometer: 1017.3 hPa
Clouds: Clear
Visibility: 16 km
2024/02/26 03:53 KLVK 260353Z 30006KT 10SM CLR 12/08 A3004 RMK AO2 SLP172 T01220078